Time;durP1;ratioP1;P1;durP2;ratioP2;P2;SDS_P1;SDS_P2;PMS_P1;PMS_P2;Temp;Humidity;BMP_temperature;BMP_pressure;BME280_temperature;BME280_humidity;BME280_pressure;Samples;Min_cycle;Max_cycle;Signal;HPM_P1;HPM_P2
2022/03/20 00:00:56;;;;;;;27.50;13.95;;;4.40;92.70;;;;;;5025214;28;20033;-55
2022/03/20 00:03:23;;;;;;;22.27;13.20;;;4.50;92.30;;;;;;5026072;28;20104;-58
2022/03/20 00:05:50;;;;;;;25.20;14.05;;;4.50;91.90;;;;;;5028470;28;20048;-56
2022/03/20 00:08:16;;;;;;;23.95;12.68;;;4.60;91.50;;;;;;5022997;28;20092;-56
2022/03/20 00:10:45;;;;;;;27.90;13.15;;;4.50;92.10;;;;;;5027349;28;20030;-57
2022/03/20 00:13:12;;;;;;;26.98;12.10;;;4.50;91.90;;;;;;5026779;28;20022;-56
2022/03/20 00:15:40;;;;;;;26.02;12.10;;;4.50;91.30;;;;;;4979606;28;20045;-57
2022/03/20 00:18:07;;;;;;;25.50;11.85;;;4.50;91.60;;;;;;4999931;28;20018;-58
2022/03/20 00:20:35;;;;;;;24.90;12.52;;;4.40;91.20;;;;;;5025135;28;20422;-56
2022/03/20 00:23:04;;;;;;;24.05;12.50;;;4.40;91.80;;;;;;5025557;28;20504;-56
2022/03/20 00:25:31;;;;;;;20.65;11.68;;;4.40;91.60;;;;;;5027087;28;21239;-55
2022/03/20 00:27:56;;;;;;;24.33;12.60;;;4.30;92.00;;;;;;5028120;28;20053;-57
2022/03/20 00:30:22;;;;;;;26.75;12.90;;;4.30;91.70;;;;;;5028341;28;20064;-56
2022/03/20 00:32:48;;;;;;;26.45;13.20;;;4.30;91.50;;;;;;5024165;28;20034;-57
2022/03/20 00:35:13;;;;;;;24.38;13.63;;;4.30;91.30;;;;;;5025338;28;20104;-58
2022/03/20 00:37:39;;;;;;;23.23;12.20;;;4.30;91.10;;;;;;5020220;28;20627;-59
2022/03/20 00:40:05;;;;;;;20.38;12.13;;;4.30;90.90;;;;;;5031075;28;20105;-59
2022/03/20 00:42:31;;;;;;;22.33;12.55;;;4.30;91.50;;;;;;5029675;28;20035;-56
2022/03/20 00:44:56;;;;;;;23.58;12.75;;;4.30;91.40;;;;;;5018136;28;20117;-58
2022/03/20 00:47:22;;;;;;;24.33;12.20;;;4.20;91.10;;;;;;5022854;28;20072;-57
2022/03/20 00:49:48;;;;;;;29.55;13.05;;;4.20;91.20;;;;;;5030588;28;20021;-58
2022/03/20 00:52:13;;;;;;;25.02;11.60;;;4.20;91.40;;;;;;5027083;28;20025;-62
2022/03/20 00:54:39;;;;;;;24.70;12.75;;;4.10;91.30;;;;;;5023127;28;20095;-56
2022/03/20 00:57:04;;;;;;;27.48;14.00;;;4.10;91.50;;;;;;5026311;28;20030;-58
2022/03/20 00:59:30;;;;;;;24.95;12.02;;;4.10;91.40;;;;;;5032209;28;20483;-60
2022/03/20 01:01:56;;;;;;;23.75;12.32;;;4.10;91.00;;;;;;5032966;28;20147;-58
2022/03/20 01:04:21;;;;;;;23.88;12.38;;;4.20;91.20;;;;;;5031405;28;20049;-57
2022/03/20 01:06:47;;;;;;;25.75;12.50;;;4.20;90.90;;;;;;5025829;28;20037;-59
2022/03/20 01:09:12;;;;;;;22.88;11.95;;;4.20;90.70;;;;;;5022108;28;20112;-59
2022/03/20 01:11:38;;;;;;;24.95;12.50;;;4.10;90.90;;;;;;5017974;28;20418;-58
2022/03/20 01:14:05;;;;;;;20.67;11.52;;;4.10;91.00;;;;;;5027570;28;20018;-53
2022/03/20 01:16:30;;;;;;;26.10;11.75;;;4.10;90.90;;;;;;5013882;28;20038;-54
2022/03/20 01:18:56;;;;;;;22.02;11.73;;;4.10;90.80;;;;;;5030618;28;20025;-60
2022/03/20 01:21:21;;;;;;;22.27;11.93;;;4.10;90.40;;;;;;5032301;28;20030;-57
2022/03/20 01:23:47;;;;;;;25.25;12.80;;;4.10;90.80;;;;;;5029736;28;20079;-58
2022/03/20 01:26:12;;;;;;;24.88;12.18;;;4.00;91.10;;;;;;5025725;28;20404;-58
2022/03/20 01:28:38;;;;;;;24.77;11.88;;;4.00;90.80;;;;;;5030505;28;20021;-55
2022/03/20 01:31:04;;;;;;;21.92;11.75;;;4.00;90.50;;;;;;5032643;28;20622;-56
2022/03/20 01:33:29;;;;;;;23.58;11.25;;;4.00;90.50;;;;;;5030452;28;20479;-59
2022/03/20 01:35:55;;;;;;;20.90;12.70;;;4.00;90.60;;;;;;5030389;28;20477;-56
2022/03/20 01:38:20;;;;;;;22.05;12.05;;;3.90;90.70;;;;;;5030022;28;20026;-57
2022/03/20 01:40:47;;;;;;;23.33;12.32;;;3.90;90.50;;;;;;5028525;28;20057;-56
2022/03/20 01:43:13;;;;;;;27.25;12.00;;;3.90;90.60;;;;;;5031174;28;20071;-57
2022/03/20 01:45:39;;;;;;;25.65;12.23;;;4.00;90.00;;;;;;5032707;28;20032;-57
2022/03/20 01:48:04;;;;;;;30.13;12.40;;;4.00;90.20;;;;;;5031362;28;20433;-56
2022/03/20 01:50:32;;;;;;;21.73;11.73;;;4.00;90.60;;;;;;5031361;28;20053;-59
2022/03/20 01:52:58;;;;;;;25.63;12.10;;;4.10;90.30;;;;;;5025835;28;20387;-59
2022/03/20 01:55:24;;;;;;;28.35;12.93;;;4.10;90.40;;;;;;5030708;28;20486;-56
2022/03/20 01:57:51;;;;;;;24.45;12.43;;;4.10;90.00;;;;;;5026041;28;20041;-56
2022/03/20 02:00:19;;;;;;;21.38;11.77;;;4.10;90.20;;;;;;5027785;28;20509;-57
2022/03/20 02:02:45;;;;;;;25.50;12.55;;;4.10;90.30;;;;;;5028870;28;20057;-56
2022/03/20 02:05:12;;;;;;;21.30;12.13;;;4.10;89.80;;;;;;5025249;28;20486;-58
2022/03/20 02:07:39;;;;;;;26.75;12.20;;;4.20;89.90;;;;;;5023463;28;20117;-59
2022/03/20 02:10:07;;;;;;;23.52;13.00;;;4.10;90.20;;;;;;5021962;28;20026;-57
2022/03/20 02:12:36;;;;;;;25.58;13.13;;;4.20;89.60;;;;;;5011799;28;20137;-59
2022/03/20 02:15:03;;;;;;;30.77;13.40;;;4.30;89.30;;;;;;5023222;28;20100;-53
2022/03/20 02:17:31;;;;;;;22.50;12.05;;;4.30;88.30;;;;;;5006332;28;20590;-56
2022/03/20 02:19:59;;;;;;;23.33;13.00;;;4.40;89.20;;;;;;5020541;28;20037;-56
2022/03/20 02:22:25;;;;;;;24.00;12.70;;;4.40;88.70;;;;;;5030114;28;20037;-59
2022/03/20 02:24:51;;;;;;;25.92;13.77;;;4.40;88.40;;;;;;5018694;28;20064;-55
2022/03/20 02:27:23;;;;;;;20.58;11.60;;;4.40;89.60;;;;;;5030213;28;20127;-56
2022/03/20 02:29:57;;;;;;;22.20;11.38;;;4.40;88.10;;;;;;5012717;28;20438;-57
2022/03/20 02:32:27;;;;;;;28.40;12.60;;;4.50;88.10;;;;;;5029445;28;20030;-57
2022/03/20 02:34:58;;;;;;;22.65;12.20;;;4.50;88.40;;;;;;5022876;28;20029;-55
2022/03/20 02:37:24;;;;;;;26.92;12.63;;;4.50;87.70;;;;;;5029488;28;20032;-54
2022/03/20 02:39:53;;;;;;;24.33;12.70;;;4.50;88.00;;;;;;5019366;28;20580;-54
2022/03/20 02:42:19;;;;;;;26.67;13.55;;;4.50;87.80;;;;;;5030222;28;20037;-53
2022/03/20 02:44:53;;;;;;;27.88;13.57;;;4.50;89.10;;;;;;5030383;28;20455;-57
2022/03/20 02:47:23;;;;;;;;;;;4.60;89.20;;;;;;5030810;28;20026;-57
2022/03/20 02:50:03;;;;;;;20.50;11.75;;;4.60;88.70;;;;;;5030259;28;19909;-58
2022/03/20 02:52:52;;;;;;;25.55;13.02;;;4.70;88.40;;;;;;5029372;28;20029;-57
2022/03/20 02:55:38;;;;;;;29.95;13.75;;;4.70;88.30;;;;;;5018712;28;20038;-57
2022/03/20 02:58:10;;;;;;;24.63;13.23;;;4.70;87.80;;;;;;5030785;28;20045;-59
2022/03/20 03:00:37;;;;;;;27.88;13.23;;;4.70;88.10;;;;;;5028075;28;20064;-57
2022/03/20 03:03:04;;;;;;;25.55;14.20;;;4.70;87.70;;;;;;5030573;28;20032;-58
2022/03/20 03:05:31;;;;;;;26.67;13.85;;;4.70;88.40;;;;;;5030126;28;20113;-59
2022/03/20 03:10:57;;;;;;;24.50;13.15;;;4.60;89.00;;;;;;5028435;28;20028;-58
2022/03/20 03:13:37;;;;;;;27.40;14.13;;;4.60;88.50;;;;;;5029597;28;20059;-60
2022/03/20 03:16:06;;;;;;;29.67;14.15;;;4.60;89.60;;;;;;5030035;28;20037;-56
2022/03/20 03:18:32;;;;;;;25.13;13.18;;;4.50;90.00;;;;;;5012680;28;20048;-56
2022/03/20 03:20:59;;;;;;;27.45;13.70;;;4.50;89.40;;;;;;5028701;28;20083;-59
2022/03/20 03:23:25;;;;;;;24.00;13.85;;;4.50;90.00;;;;;;5011709;28;20033;-57
2022/03/20 03:25:51;;;;;;;35.13;12.68;;;4.60;88.40;;;;;;5024521;28;20025;-58
2022/03/20 03:28:17;;;;;;;27.25;13.90;;;4.60;88.60;;;;;;5027733;28;20029;-60
2022/03/20 03:30:47;;;;;;;26.98;14.70;;;4.60;89.00;;;;;;5025851;28;20036;-56
2022/03/20 03:33:14;;;;;;;30.13;14.65;;;4.70;89.30;;;;;;5025475;28;20116;-55
2022/03/20 03:35:42;;;;;;;23.77;13.25;;;4.70;88.90;;;;;;5030002;28;20029;-59
2022/03/20 03:38:14;;;;;;;28.70;14.13;;;4.70;88.60;;;;;;5029445;28;20057;-59
2022/03/20 03:40:41;;;;;;;26.90;14.02;;;4.70;88.10;;;;;;5029022;28;20026;-55
2022/03/20 03:43:07;;;;;;;26.38;13.73;;;4.70;87.50;;;;;;5024491;28;20053;-59
2022/03/20 03:45:33;;;;;;;32.30;14.18;;;4.70;88.60;;;;;;5029993;28;20565;-60
2022/03/20 03:48:00;;;;;;;31.25;14.82;;;4.60;87.80;;;;;;5029568;28;20060;-55
2022/03/20 03:50:26;;;;;;;24.25;13.95;;;4.60;87.70;;;;;;5029826;28;20363;-55
2022/03/20 03:52:52;;;;;;;31.50;14.82;;;4.60;87.50;;;;;;5018803;28;20124;-57
2022/03/20 03:55:18;;;;;;;25.58;13.45;;;4.50;88.30;;;;;;5025492;28;20495;-56
2022/03/20 03:57:48;;;;;;;28.48;14.43;;;4.50;88.80;;;;;;5029416;28;20042;-58
2022/03/20 04:00:19;;;;;;;28.08;15.50;;;4.40;89.60;;;;;;5029503;28;20034;-58
2022/03/20 04:02:45;;;;;;;25.60;14.43;;;4.40;88.40;;;;;;5011056;28;20104;-57
2022/03/20 04:05:11;;;;;;;28.15;14.73;;;4.30;88.70;;;;;;5029919;28;20025;-58
2022/03/20 04:07:37;;;;;;;28.75;14.45;;;4.30;88.50;;;;;;5028466;28;20022;-59
2022/03/20 04:10:05;;;;;;;26.33;14.48;;;4.30;89.80;;;;;;5029832;28;20390;-58
2022/03/20 04:12:40;;;;;;;28.85;14.85;;;4.20;89.70;;;;;;5025630;28;20541;-57
2022/03/20 04:15:09;;;;;;;31.15;14.45;;;4.20;90.00;;;;;;5033369;28;20040;-55
2022/03/20 04:17:35;;;;;;;25.35;13.55;;;4.10;90.30;;;;;;5008043;28;20502;-58
2022/03/20 04:20:01;;;;;;;33.08;14.30;;;4.10;90.00;;;;;;5026524;28;20087;-52
2022/03/20 04:22:28;;;;;;;29.38;15.18;;;4.10;89.40;;;;;;5031651;28;20087;-58
2022/03/20 04:24:54;;;;;;;24.52;14.68;;;4.10;89.10;;;;;;5034057;28;20124;-57
2022/03/20 04:27:20;;;;;;;27.92;14.07;;;4.10;90.10;;;;;;5032290;28;20043;-57
2022/03/20 04:29:48;;;;;;;26.75;14.40;;;4.10;89.70;;;;;;5027830;28;20037;-57
2022/03/20 04:32:13;;;;;;;29.58;15.40;;;4.00;89.90;;;;;;5033304;28;20097;-53
2022/03/20 04:34:40;;;;;;;30.48;15.70;;;4.00;90.20;;;;;;5033575;28;20507;-59
2022/03/20 04:37:07;;;;;;;29.92;15.63;;;3.90;90.00;;;;;;5033775;28;20077;-58
2022/03/20 04:39:37;;;;;;;26.08;15.25;;;3.90;90.60;;;;;;5032543;28;20569;-56
2022/03/20 04:42:04;;;;;;;30.50;15.93;;;3.80;90.50;;;;;;5020255;28;20034;-56
2022/03/20 04:44:30;;;;;;;31.60;16.08;;;3.90;90.10;;;;;;5032295;28;20083;-57
2022/03/20 04:46:55;;;;;;;31.45;15.05;;;3.90;90.20;;;;;;5033652;28;20029;-57
2022/03/20 05:00:18;;;;;;;32.15;15.57;;;3.70;90.70;;;;;;5031308;28;20113;-56
2022/03/20 05:02:45;;;;;;;27.67;15.20;;;3.70;91.10;;;;;;5028918;28;20108;-55
2022/03/20 05:05:11;;;;;;;29.13;15.60;;;3.80;90.70;;;;;;5032968;28;20034;-59
2022/03/20 05:07:36;;;;;;;33.13;17.38;;;3.90;90.60;;;;;;5030621;28;20032;-56
2022/03/20 05:13:20;;;;;;;31.00;16.17;;;4.10;90.60;;;;;;4970386;28;20516;-56
2022/03/20 05:15:46;;;;;;;31.77;15.75;;;4.20;90.80;;;;;;4971572;28;20030;-57
2022/03/20 05:18:12;;;;;;;34.35;15.15;;;4.30;90.40;;;;;;4986268;28;20477;-59
2022/03/20 05:20:38;;;;;;;33.25;16.45;;;4.30;90.20;;;;;;5029628;28;20108;-57
2022/03/20 05:23:04;;;;;;;28.05;15.77;;;4.40;90.50;;;;;;5025128;28;20117;-57
2022/03/20 05:25:30;;;;;;;31.02;16.05;;;4.40;90.00;;;;;;5022571;28;20029;-49
2022/03/20 05:27:56;;;;;;;34.50;16.42;;;4.50;90.10;;;;;;5024456;28;20026;-60
2022/03/20 05:30:22;;;;;;;29.42;15.68;;;4.50;90.00;;;;;;5032580;28;20394;-59
2022/03/20 05:32:48;;;;;;;33.55;16.15;;;4.50;90.30;;;;;;5029115;28;20030;-57
2022/03/20 05:35:17;;;;;;;33.28;15.98;;;4.40;90.60;;;;;;5031450;28;20037;-57
2022/03/20 05:37:44;;;;;;;29.73;16.95;;;4.40;90.80;;;;;;5029359;28;20064;-58
2022/03/20 05:40:10;;;;;;;31.10;16.05;;;4.40;90.50;;;;;;5031144;28;20557;-57
2022/03/20 05:42:36;;;;;;;34.22;17.13;;;4.30;90.30;;;;;;5028022;28;20117;-60
2022/03/20 05:45:03;;;;;;;33.17;16.30;;;4.30;90.90;;;;;;5032230;28;20437;-58
2022/03/20 05:47:31;;;;;;;32.25;15.15;;;4.30;90.50;;;;;;5017597;28;20045;-52
2022/03/20 05:49:58;;;;;;;32.95;16.67;;;4.30;90.40;;;;;;5032225;28;20033;-59
2022/03/20 05:52:23;;;;;;;33.88;17.73;;;4.20;90.60;;;;;;5030535;28;20041;-59
2022/03/20 05:54:49;;;;;;;31.08;16.10;;;4.30;90.30;;;;;;5030447;28;20108;-57
2022/03/20 05:59:59;;;;;;;29.77;15.07;;;4.30;90.50;;;;;;5026428;28;20041;-58
2022/03/20 06:02:24;;;;;;;36.05;17.98;;;4.30;90.30;;;;;;5030455;28;20037;-57
2022/03/20 06:04:51;;;;;;;33.30;17.38;;;4.30;90.30;;;;;;5026726;28;20033;-59
2022/03/20 06:07:17;;;;;;;33.60;17.50;;;4.30;90.20;;;;;;5029933;28;20021;-60
2022/03/20 06:09:42;;;;;;;29.00;16.02;;;4.30;90.50;;;;;;5028969;28;20033;-58
2022/03/20 06:12:08;;;;;;;29.23;15.73;;;4.30;90.30;;;;;;5028286;28;20509;-57
2022/03/20 06:14:35;;;;;;;33.58;16.25;;;4.30;90.50;;;;;;5030680;28;20159;-59
2022/03/20 06:17:02;;;;;;;30.83;16.70;;;4.40;90.30;;;;;;5031240;28;20037;-58
2022/03/20 06:19:28;;;;;;;37.72;17.25;;;4.50;90.20;;;;;;5011092;28;20041;-54
2022/03/20 06:21:53;;;;;;;34.72;17.55;;;4.50;90.80;;;;;;5030061;28;20085;-55
2022/03/20 06:24:19;;;;;;;28.67;15.90;;;4.50;90.80;;;;;;5030658;28;20068;-53
2022/03/20 06:26:45;;;;;;;34.72;18.45;;;4.60;90.00;;;;;;5026693;28;20442;-58
2022/03/20 06:29:10;;;;;;;32.78;17.70;;;4.70;90.40;;;;;;5022535;28;20404;-56
2022/03/20 06:31:36;;;;;;;36.83;19.23;;;4.80;90.10;;;;;;5030736;28;20029;-53
2022/03/20 06:34:02;;;;;;;30.95;16.80;;;5.00;89.30;;;;;;5014223;28;20101;-56
2022/03/20 06:36:27;;;;;;;32.00;16.98;;;5.10;88.60;;;;;;5029490;28;20471;-57
2022/03/20 06:38:54;;;;;;;34.92;18.02;;;5.30;88.80;;;;;;5030449;28;20025;-57
2022/03/20 06:41:19;;;;;;;30.77;17.48;;;5.40;88.50;;;;;;5029958;28;20095;-59
2022/03/20 06:43:45;;;;;;;33.20;17.50;;;5.60;87.70;;;;;;5012062;28;20500;-58
2022/03/20 06:46:11;;;;;;;28.88;16.00;;;6.00;88.10;;;;;;5028816;28;20033;-58
2022/03/20 06:48:36;;;;;;;31.48;15.95;;;6.20;86.30;;;;;;5024682;28;20021;-58
2022/03/20 06:51:04;;;;;;;32.90;17.50;;;6.60;86.10;;;;;;5031191;28;20045;-58
2022/03/20 06:53:30;;;;;;;34.90;17.05;;;6.80;84.30;;;;;;5020238;28;20492;-57
2022/03/20 06:55:57;;;;;;;32.75;17.08;;;7.20;83.30;;;;;;5030724;28;20037;-59
2022/03/20 06:58:23;;;;;;;38.67;18.00;;;7.80;84.20;;;;;;5023056;28;20025;-59
2022/03/20 07:00:49;;;;;;;30.58;18.25;;;8.20;81.50;;;;;;5030426;28;20030;-58
2022/03/20 07:03:15;;;;;;;32.13;17.88;;;8.70;80.30;;;;;;5030741;28;20163;-58
2022/03/20 07:05:41;;;;;;;31.63;18.42;;;9.10;79.00;;;;;;5028909;28;20104;-58
2022/03/20 07:08:07;;;;;;;31.13;18.45;;;9.40;76.90;;;;;;5024184;28;20061;-57
2022/03/20 07:10:34;;;;;;;34.28;17.60;;;9.00;77.20;;;;;;5026477;28;20034;-59
2022/03/20 07:15:46;;;;;;;27.73;17.13;;;9.50;75.40;;;;;;5028089;28;20094;-58
2022/03/20 07:18:14;;;;;;;29.65;18.63;;;9.70;76.00;;;;;;5003381;28;20479;-56
2022/03/20 07:20:41;;;;;;;30.70;18.75;;;9.80;74.20;;;;;;5030327;28;20163;-59
2022/03/20 07:23:09;;;;;;;30.60;17.35;;;9.60;74.50;;;;;;5022813;28;20117;-58
2022/03/20 07:31:03;;;;;;;33.83;19.38;;;8.30;77.10;;;;;;5023539;28;20088;-59
2022/03/20 07:33:29;;;;;;;37.25;18.15;;;7.80;78.60;;;;;;5029915;28;20041;-53
2022/03/20 07:35:54;;;;;;;31.33;17.30;;;7.30;80.10;;;;;;5029853;28;20095;-56
2022/03/20 07:38:20;;;;;;;30.25;17.73;;;7.10;81.60;;;;;;5029797;28;20034;-60
2022/03/20 07:40:46;;;;;;;30.08;17.83;;;7.40;84.10;;;;;;5030109;28;20402;-58
2022/03/20 07:43:11;;;;;;;33.42;18.60;;;7.60;82.50;;;;;;5026175;28;20487;-56
2022/03/20 07:45:37;;;;;;;31.55;18.33;;;7.60;81.70;;;;;;5029955;28;20036;-56
2022/03/20 07:48:03;;;;;;;32.20;18.48;;;7.50;80.60;;;;;;5025273;28;20038;-59
2022/03/20 07:50:28;;;;;;;30.63;18.20;;;7.50;82.20;;;;;;5020754;28;20025;-59
2022/03/20 07:52:56;;;;;;;36.45;18.05;;;7.60;82.20;;;;;;5023996;28;20380;-57
2022/03/20 07:55:23;;;;;;;30.60;18.90;;;7.40;81.00;;;;;;5029560;28;20366;-59
2022/03/20 07:57:49;;;;;;;39.05;19.08;;;7.50;81.90;;;;;;5028043;28;20116;-58
2022/03/20 08:00:15;;;;;;;32.08;17.83;;;7.50;81.30;;;;;;5016547;28;20134;-59
2022/03/20 08:02:41;;;;;;;33.05;18.63;;;7.50;81.20;;;;;;5029833;28;20029;-58
2022/03/20 08:05:07;;;;;;;32.55;18.05;;;7.50;81.60;;;;;;5030248;28;20030;-60
2022/03/20 08:07:39;;;;;;;31.73;18.35;;;7.80;80.70;;;;;;5026937;28;20036;-56
2022/03/20 08:10:09;;;;;;;37.38;19.60;;;8.20;81.80;;;;;;5029823;28;20030;-61
2022/03/20 08:12:35;;;;;;;33.83;18.73;;;8.30;80.90;;;;;;5026554;28;20088;-61
2022/03/20 08:15:02;;;;;;;33.85;19.52;;;8.60;79.60;;;;;;5029601;28;20033;-59
2022/03/20 08:17:29;;;;;;;31.70;18.33;;;8.40;79.20;;;;;;5029332;28;20034;-58
2022/03/20 08:19:56;;;;;;;28.52;17.15;;;8.40;80.50;;;;;;5013834;28;20041;-60
2022/03/20 08:22:22;;;;;;;36.25;19.23;;;8.40;82.40;;;;;;5027980;28;20033;-61
2022/03/20 08:24:48;;;;;;;38.97;20.80;;;8.20;80.60;;;;;;5026386;28;20041;-59
2022/03/20 08:27:14;;;;;;;34.60;20.27;;;8.20;80.00;;;;;;5011914;28;20372;-60
2022/03/20 08:29:40;;;;;;;33.60;18.98;;;8.30;80.30;;;;;;5029261;28;20034;-61
2022/03/20 08:32:07;;;;;;;32.47;19.17;;;8.50;80.70;;;;;;5029935;28;20597;-57
2022/03/20 08:34:32;;;;;;;34.15;19.63;;;8.70;80.60;;;;;;5027306;28;20025;-60
2022/03/20 08:36:58;;;;;;;33.72;20.33;;;8.80;80.70;;;;;;5030074;28;20084;-61
2022/03/20 08:39:23;;;;;;;31.20;19.00;;;9.10;80.90;;;;;;5020132;28;20022;-58
2022/03/20 08:41:49;;;;;;;31.05;19.75;;;9.10;78.70;;;;;;5030110;28;20030;-61
2022/03/20 08:44:15;;;;;;;36.28;20.00;;;9.30;79.10;;;;;;5022219;28;20025;-61
2022/03/20 08:46:40;;;;;;;31.90;19.83;;;9.60;79.00;;;;;;5018103;28;20661;-60
2022/03/20 08:49:07;;;;;;;34.75;20.65;;;9.90;79.20;;;;;;5025524;28;20069;-62
2022/03/20 08:51:34;;;;;;;31.52;19.92;;;10.50;77.70;;;;;;5026698;28;20021;-59
2022/03/20 08:54:01;;;;;;;31.88;21.58;;;10.80;77.60;;;;;;5027062;28;20056;-61
2022/03/20 08:56:27;;;;;;;33.05;20.13;;;10.80;77.00;;;;;;5029191;28;20022;-55
2022/03/20 08:58:53;;;;;;;38.78;20.52;;;10.70;77.00;;;;;;5012506;28;20029;-56
2022/03/20 09:01:19;;;;;;;36.08;22.35;;;10.60;77.30;;;;;;5032669;28;20071;-54
2022/03/20 09:03:49;;;;;;;33.50;21.15;;;10.40;76.80;;;;;;5032376;28;20482;-55
2022/03/20 09:06:15;;;;;;;37.80;22.63;;;10.50;77.20;;;;;;5026258;28;20026;-59
2022/03/20 09:08:40;;;;;;;34.00;20.60;;;10.60;77.80;;;;;;5030777;28;20021;-59
2022/03/20 09:11:06;;;;;;;35.00;21.45;;;10.60;76.60;;;;;;5031567;28;20096;-60
2022/03/20 09:13:31;;;;;;;29.85;20.05;;;10.60;76.90;;;;;;5027561;28;20045;-56
2022/03/20 09:21:38;;;;;;;32.10;20.63;;;10.70;76.00;;;;;;5008650;28;20402;-60
2022/03/20 09:24:05;;;;;;;44.40;22.58;;;10.80;77.80;;;;;;5027719;28;20029;-59
2022/03/20 09:26:31;;;;;;;33.08;20.98;;;11.00;76.30;;;;;;5031347;28;20030;-59
2022/03/20 09:28:57;;;;;;;35.40;22.13;;;10.90;77.30;;;;;;5019811;28;20028;-59
2022/03/20 09:31:23;;;;;;;35.22;21.30;;;11.00;76.90;;;;;;5023607;28;20030;-60
2022/03/20 09:33:49;;;;;;;33.92;20.55;;;11.00;75.90;;;;;;5032255;28;20083;-59
2022/03/20 09:36:15;;;;;;;36.00;22.13;;;11.10;75.80;;;;;;5031881;28;20036;-60
2022/03/20 09:38:41;;;;;;;34.85;22.38;;;11.10;76.30;;;;;;5032278;28;20026;-57
2022/03/20 09:41:08;;;;;;;34.65;23.42;;;11.30;75.20;;;;;;5032155;28;20036;-60
2022/03/20 09:43:36;;;;;;;37.55;21.67;;;11.30;76.40;;;;;;5030003;28;20060;-59
2022/03/20 09:46:02;;;;;;;39.08;22.08;;;11.50;76.10;;;;;;5027805;28;20026;-61
2022/03/20 09:48:29;;;;;;;37.35;21.45;;;11.60;75.80;;;;;;5025746;28;20026;-61
2022/03/20 09:50:57;;;;;;;37.83;23.48;;;11.50;76.30;;;;;;5028446;28;20039;-61
2022/03/20 09:53:22;;;;;;;37.85;21.17;;;11.60;76.20;;;;;;5025248;28;20017;-62
2022/03/20 09:55:48;;;;;;;35.63;22.25;;;11.50;75.70;;;;;;5031898;28;20556;-59
2022/03/20 09:58:13;;;;;;;33.78;21.33;;;11.20;75.50;;;;;;5030471;28;20622;-60
2022/03/20 10:00:40;;;;;;;39.70;22.15;;;11.20;77.20;;;;;;5023918;28;20025;-61
2022/03/20 10:03:17;;;;;;;35.95;21.13;;;11.30;77.80;;;;;;5029820;28;20398;-60
2022/03/20 10:05:43;;;;;;;34.90;21.80;;;11.40;77.00;;;;;;5030599;28;20736;-60
2022/03/20 10:08:16;;;;;;;37.92;22.80;;;11.60;76.70;;;;;;5026557;28;20096;-60
2022/03/20 10:10:43;;;;;;;38.63;23.00;;;11.70;76.60;;;;;;5031417;28;20026;-59
2022/03/20 10:13:13;;;;;;;36.53;23.92;;;11.50;76.70;;;;;;5025866;28;20030;-58
2022/03/20 10:15:41;;;;;;;34.22;22.42;;;11.50;75.80;;;;;;5030585;28;20119;-58
2022/03/20 10:18:10;;;;;;;41.17;22.88;;;11.40;76.10;;;;;;5026109;28;20079;-60
2022/03/20 10:20:46;;;;;;;36.25;21.27;;;10.90;76.20;;;;;;4998269;28;20055;-58
2022/03/20 10:23:36;;;;;;;34.38;22.17;;;11.10;77.70;;;;;;5028035;28;20029;-61
2022/03/20 10:26:07;;;;;;;35.72;20.90;;;11.30;76.80;;;;;;5032757;28;20034;-60
2022/03/20 10:28:46;;;;;;;34.53;20.92;;;11.40;77.20;;;;;;5028166;28;20246;-60
2022/03/20 10:31:15;;;;;;;36.13;21.92;;;11.70;76.10;;;;;;5029061;28;20053;-61
2022/03/20 10:33:43;;;;;;;37.17;23.30;;;11.70;74.80;;;;;;5020939;28;20029;-58
2022/03/20 10:36:20;;;;;;;34.75;22.17;;;11.40;75.60;;;;;;5028829;28;20021;-60
2022/03/20 10:38:48;;;;;;;32.97;21.60;;;11.30;77.10;;;;;;5023847;28;20071;-59
2022/03/20 10:41:16;;;;;;;36.35;21.10;;;11.40;77.30;;;;;;5031506;28;20083;-56
2022/03/20 10:43:42;;;;;;;35.03;21.85;;;11.10;76.40;;;;;;5000162;28;20507;-54
2022/03/20 10:46:08;;;;;;;35.53;22.02;;;10.90;77.60;;;;;;5030416;28;20069;-58
2022/03/20 10:48:35;;;;;;;37.13;22.27;;;10.80;77.90;;;;;;5027743;28;20034;-57
2022/03/20 10:51:02;;;;;;;34.47;21.75;;;11.10;78.30;;;;;;5025705;28;20018;-58
2022/03/20 10:53:27;;;;;;;37.10;22.55;;;11.00;78.50;;;;;;5023565;28;20021;-56
2022/03/20 10:56:07;;;;;;;34.97;21.33;;;11.10;79.50;;;;;;5026357;28;20552;-60
2022/03/20 10:58:39;;;;;;;42.38;23.02;;;11.20;78.80;;;;;;5021903;28;20091;-59
2022/03/20 11:01:07;;;;;;;35.15;21.85;;;11.00;77.60;;;;;;5028071;28;20040;-61
2022/03/20 11:03:37;;;;;;;36.33;21.95;;;11.20;79.20;;;;;;5028100;28;20021;-55
2022/03/20 11:06:11;;;;;;;36.63;22.23;;;11.30;78.90;;;;;;5029934;28;20449;-61
2022/03/20 11:08:37;;;;;;;36.20;21.73;;;11.20;79.10;;;;;;5010913;28;20545;-53
2022/03/20 11:11:03;;;;;;;36.58;22.70;;;11.30;79.30;;;;;;5014572;28;20042;-58
2022/03/20 11:13:32;;;;;;;37.20;23.92;;;11.30;78.80;;;;;;5029063;28;20125;-57
2022/03/20 11:15:59;;;;;;;34.70;22.10;;;11.10;79.20;;;;;;5028715;28;20529;-58
2022/03/20 11:18:28;;;;;;;36.92;22.55;;;11.20;80.10;;;;;;5026215;28;20120;-57
2022/03/20 11:20:56;;;;;;;35.33;22.92;;;11.40;79.90;;;;;;4999709;28;20092;-55
2022/03/20 11:23:24;;;;;;;34.53;21.98;;;11.60;79.90;;;;;;5006291;28;20029;-56
2022/03/20 11:25:52;;;;;;;34.75;22.50;;;11.60;80.70;;;;;;5027617;28;20146;-56
2022/03/20 11:28:20;;;;;;;40.42;24.10;;;11.60;80.50;;;;;;5024835;28;20022;-56
2022/03/20 11:30:47;;;;;;;38.00;21.98;;;11.70;80.80;;;;;;5021808;28;20028;-57
2022/03/20 11:33:14;;;;;;;34.65;23.63;;;11.80;81.00;;;;;;5027894;28;20069;-58
2022/03/20 11:35:40;;;;;;;36.47;22.92;;;11.90;81.60;;;;;;5027819;28;20025;-57
2022/03/20 11:38:25;;;;;;;37.25;23.60;;;12.00;81.00;;;;;;5029957;28;20382;-54
2022/03/20 11:41:17;;;;;;;40.10;22.45;;;12.10;80.70;;;;;;5029448;28;20026;-57
2022/03/20 11:44:05;;;;;;;35.65;22.52;;;12.10;80.90;;;;;;5023559;28;20083;-57
2022/03/20 11:46:33;;;;;;;33.85;22.88;;;12.10;81.10;;;;;;5021195;28;20084;-57
2022/03/20 11:49:13;;;;;;;35.22;21.77;;;12.20;81.90;;;;;;5027312;28;20068;-57
2022/03/20 11:51:51;;;;;;;37.40;22.90;;;12.20;81.70;;;;;;5008592;28;20025;-56
2022/03/20 11:54:17;;;;;;;38.88;21.73;;;12.30;81.80;;;;;;5015649;28;20843;-56
2022/03/20 11:56:43;;;;;;;40.10;22.70;;;12.40;82.30;;;;;;5025277;28;20029;-58
2022/03/20 11:59:46;;;;;;;37.65;21.98;;;12.70;83.00;;;;;;5027859;28;20021;-59
2022/03/20 12:02:16;;;;;;;40.08;22.90;;;13.10;81.50;;;;;;5012052;28;20492;-60
2022/03/20 12:05:17;;;;;;;38.40;22.95;;;13.20;81.20;;;;;;5025995;28;20519;-60
2022/03/20 12:07:54;;;;;;;33.30;21.90;;;13.40;80.40;;;;;;5020406;28;20030;-59
2022/03/20 12:10:31;;;;;;;31.88;21.85;;;13.40;80.80;;;;;;5026483;28;20017;-59
2022/03/20 12:13:07;;;;;;;36.53;22.95;;;13.50;80.80;;;;;;5022704;28;20064;-61
2022/03/20 12:15:42;;;;;;;37.78;23.10;;;13.50;81.20;;;;;;5025337;28;20021;-53
2022/03/20 12:18:10;;;;;;;35.25;23.45;;;13.50;81.70;;;;;;5025948;28;20032;-57
2022/03/20 12:21:01;;;;;;;37.83;21.45;;;13.10;81.80;;;;;;5009216;28;20516;-60
2022/03/20 12:23:31;;;;;;;34.25;20.85;;;12.90;82.60;;;;;;5027964;28;20022;-58
2022/03/20 12:25:57;;;;;;;35.33;20.85;;;12.70;83.70;;;;;;5029939;28;20387;-57
2022/03/20 12:28:29;;;;;;;33.22;20.98;;;12.70;84.20;;;;;;5022513;28;20034;-59
2022/03/20 12:30:55;;;;;;;31.75;20.08;;;12.50;83.50;;;;;;5030045;28;20068;-57
2022/03/20 12:33:24;;;;;;;34.60;21.52;;;12.60;83.40;;;;;;5026388;28;20030;-58
2022/03/20 12:35:50;;;;;;;41.08;21.48;;;12.50;84.60;;;;;;5030470;28;20483;-58
2022/03/20 12:38:34;;;;;;;34.50;20.50;;;12.50;84.10;;;;;;5029948;28;20056;-59
2022/03/20 12:41:12;;;;;;;34.38;19.67;;;12.70;85.10;;;;;;5028997;28;20060;-59
2022/03/20 12:43:38;;;;;;;34.38;20.17;;;13.00;83.90;;;;;;5024248;28;20049;-57
2022/03/20 12:46:03;;;;;;;31.13;19.92;;;13.10;84.00;;;;;;5032522;28;20057;-59
2022/03/20 12:48:32;;;;;;;33.88;20.58;;;13.20;84.00;;;;;;5012659;28;20033;-61
2022/03/20 12:51:01;;;;;;;40.33;20.92;;;13.30;84.10;;;;;;5019748;28;20030;-56
2022/03/20 12:53:40;;;;;;;32.67;18.65;;;13.40;84.50;;;;;;5029723;28;20112;-60
2022/03/20 12:56:09;;;;;;;33.65;18.00;;;13.50;84.80;;;;;;5033024;28;20026;-58
2022/03/20 12:58:35;;;;;;;33.33;18.58;;;13.50;84.80;;;;;;5025712;28;20052;-57
2022/03/20 13:01:10;;;;;;;29.63;19.92;;;13.40;84.90;;;;;;5032030;28;20465;-61
2022/03/20 13:03:35;;;;;;;31.70;18.48;;;13.50;85.20;;;;;;5031655;28;20057;-57
2022/03/20 13:06:02;;;;;;;28.98;18.83;;;13.40;85.40;;;;;;5024427;28;20425;-60
2022/03/20 13:08:39;;;;;;;31.55;17.63;;;13.40;85.00;;;;;;5031247;28;20014;-59
2022/03/20 13:14:12;;;;;;;29.23;17.60;;;13.60;84.80;;;;;;4951566;29;20038;-60